^^
Meteo Knjazevac Station Historical Data
Daily Summary for August 28, 2021 Units:  English    Metric   Both
Daily Weekly Monthly Yearly Custom
  High: Low: Average:
Temperature: 65.4 °F 56.7 °F 60 °F
Dew Point: 59.7 °F 54.3 °F 56.6 °F
Humidity: 94% 82% 89%
Wind Speed: 3mph 0mph 1.4mph
Wind Gust: 5mph - -
Wind- - West
Pressure: 30.12 in 30.10 in -
Precipitation: 0.00 in    
Historical Graphs
 
 
Tabular Data for August 28, 2021
Time Temperature Dew Point Pressure Wind Wind Speed Wind Gust Humidity Rainfall Rate (Hourly) solar Conditions
00:00 65.4 °F 59.7 °F 30.10 in NW 1 mph 3 mph 82% 0.00 in 0 W/m2
00:10 64.9 °F 59.3 °F 30.10 in WNW 1 mph 3 mph 82% 0.00 in 0 W/m2
00:20 64.5 °F 59.2 °F 30.10 in Calm   2 mph 83% 0.00 in 0 W/m2
00:30 63.9 °F 58.9 °F 30.10 in West 1 mph 2 mph 84% 0.00 in 0 W/m2
00:40 63.3 °F 58.7 °F 30.11 in West 2 mph 3 mph 85% 0.00 in 0 W/m2
00:50 63 °F 58.4 °F 30.11 in WSW 2 mph 3 mph 85% 0.00 in 0 W/m2
01:00 62.4 °F 57.8 °F 30.11 in West 2 mph 4 mph 85% 0.00 in 0 W/m2
01:20 61.9 °F 57.6 °F 30.11 in West 2 mph 4 mph 86% 0.00 in 0 W/m2
01:30 61.8 °F 57.5 °F 30.11 in NW 1 mph 3 mph 86% 0.00 in 0 W/m2
01:40 61.5 °F 57.3 °F 30.11 in WNW 1 mph 3 mph 86% 0.00 in 0 W/m2
01:50 61.2 °F 57.6 °F 30.11 in West 2 mph 5 mph 88% 0.00 in 0 W/m2
02:00 61.2 °F 57.6 °F 30.11 in West 2 mph 4 mph 88% 0.00 in 0 W/m2
02:10 61.2 °F 57.6 °F 30.11 in West 2 mph 4 mph 88% 0.00 in 0 W/m2
02:20 61 °F 57.4 °F 30.12 in WNW 1 mph 4 mph 88% 0.00 in 0 W/m2
02:30 60.6 °F 57 °F 30.12 in WNW 1 mph 2 mph 88% 0.00 in 0 W/m2
02:40 60.1 °F 56.5 °F 30.12 in Calm   2 mph 88% 0.00 in 0 W/m2
02:50 59.9 °F 56.6 °F 30.12 in NNW 1 mph 2 mph 89% 0.00 in 0 W/m2
03:00 59.4 °F 56.1 °F 30.12 in Calm   2 mph 89% 0.00 in 0 W/m2
03:10 59.2 °F 56.2 °F 30.12 in WNW 2 mph 3 mph 90% 0.00 in 0 W/m2
03:20 59 °F 56.1 °F 30.12 in WNW 1 mph 3 mph 90% 0.00 in 0 W/m2
03:30 58.6 °F 55.7 °F 30.12 in WNW 1 mph 3 mph 90% 0.00 in 0 W/m2
03:40 58.3 °F 55.4 °F 30.12 in WSW 1 mph 3 mph 90% 0.00 in 0 W/m2
03:50 58.1 °F 55.5 °F 30.12 in WSW 2 mph 3 mph 91% 0.00 in 0 W/m2
04:00 57.9 °F 55.3 °F 30.12 in West 3 mph 5 mph 91% 0.00 in 0 W/m2
04:10 58.1 °F 55.5 °F 30.12 in West 2 mph 5 mph 91% 0.00 in 0 W/m2
04:20 57.9 °F 55.3 °F 30.12 in West 2 mph 3 mph 91% 0.00 in 0 W/m2
04:30 57.7 °F 55.1 °F 30.12 in NW 2 mph 4 mph 91% 0.00 in 0 W/m2
04:40 57.6 °F 55 °F 30.12 in West 1 mph 3 mph 91% 0.00 in 0 W/m2
04:50 57.3 °F 54.6 °F 30.12 in WSW 1 mph 3 mph 91% 0.00 in 0 W/m2
05:00 56.9 °F 54.3 °F 30.12 in West 2 mph 3 mph 91% 0.00 in 7 W/m2
05:10 56.7 °F 54.7 °F 30.12 in West 2 mph 4 mph 93% 0.00 in 14 W/m2
05:20 56.7 °F 54.7 °F 30.12 in West 1 mph 4 mph 93% 0.00 in 21 W/m2
05:30 56.7 °F 55 °F 30.12 in West 1 mph 3 mph 94% 0.00 in 28 W/m2
05:40 56.8 °F 54.8 °F 30.12 in WNW 1 mph 3 mph 93% 0.00 in 35 W/m2
Knjazevac, Serbia
Compliments of Weather Underground - 2 mb